sensor_id;sensor_type;location;lat;lon;timestamp;P1;durP1;ratioP1;P2;durP2;ratioP2
34019;SDS011;20895;51.034;3.742;2022-09-27T00:01:38;7.10;;;1.40;;
34019;SDS011;20895;51.034;3.742;2022-09-27T00:04:03;7.13;;;1.73;;
34019;SDS011;20895;51.034;3.742;2022-09-27T00:06:29;6.25;;;1.63;;
34019;SDS011;20895;51.034;3.742;2022-09-27T00:08:55;8.45;;;2.40;;
34019;SDS011;20895;51.034;3.742;2022-09-27T00:11:25;5.65;;;1.80;;
34019;SDS011;20895;51.034;3.742;2022-09-27T00:13:52;6.25;;;1.70;;
34019;SDS011;20895;51.034;3.742;2022-09-27T00:16:20;4.03;;;1.38;;
34019;SDS011;20895;51.034;3.742;2022-09-27T00:18:46;7.38;;;1.60;;
34019;SDS011;20895;51.034;3.742;2022-09-27T00:21:12;4.47;;;1.42;;
34019;SDS011;20895;51.034;3.742;2022-09-27T00:23:37;5.82;;;1.48;;
34019;SDS011;20895;51.034;3.742;2022-09-27T00:26:03;6.85;;;1.52;;
34019;SDS011;20895;51.034;3.742;2022-09-27T00:28:29;8.82;;;3.00;;
34019;SDS011;20895;51.034;3.742;2022-09-27T00:30:55;6.47;;;1.58;;
34019;SDS011;20895;51.034;3.742;2022-09-27T00:33:20;4.80;;;1.13;;
34019;SDS011;20895;51.034;3.742;2022-09-27T00:35:46;4.32;;;1.52;;
34019;SDS011;20895;51.034;3.742;2022-09-27T00:38:11;8.75;;;1.98;;
34019;SDS011;20895;51.034;3.742;2022-09-27T00:40:37;7.00;;;1.95;;
34019;SDS011;20895;51.034;3.742;2022-09-27T00:43:08;5.80;;;1.35;;
34019;SDS011;20895;51.034;3.742;2022-09-27T00:45:37;4.10;;;1.10;;
34019;SDS011;20895;51.034;3.742;2022-09-27T00:48:03;4.57;;;0.98;;
34019;SDS011;20895;51.034;3.742;2022-09-27T00:50:34;3.05;;;0.90;;
34019;SDS011;20895;51.034;3.742;2022-09-27T00:55:34;3.55;;;0.70;;
34019;SDS011;20895;51.034;3.742;2022-09-27T00:58:00;2.85;;;0.80;;
34019;SDS011;20895;51.034;3.742;2022-09-27T01:00:26;2.95;;;1.05;;
34019;SDS011;20895;51.034;3.742;2022-09-27T01:02:52;3.65;;;0.90;;
34019;SDS011;20895;51.034;3.742;2022-09-27T01:05:19;3.85;;;0.90;;
34019;SDS011;20895;51.034;3.742;2022-09-27T01:07:46;7.75;;;1.17;;
34019;SDS011;20895;51.034;3.742;2022-09-27T01:10:11;4.35;;;0.88;;
34019;SDS011;20895;51.034;3.742;2022-09-27T01:12:56;5.55;;;0.88;;
34019;SDS011;20895;51.034;3.742;2022-09-27T01:18:02;3.53;;;1.05;;
34019;SDS011;20895;51.034;3.742;2022-09-27T01:38:23;6.88;;;1.20;;
34019;SDS011;20895;51.034;3.742;2022-09-27T01:43:38;4.90;;;1.00;;
34019;SDS011;20895;51.034;3.742;2022-09-27T01:46:07;4.90;;;1.73;;
34019;SDS011;20895;51.034;3.742;2022-09-27T01:48:36;2.88;;;1.08;;
34019;SDS011;20895;51.034;3.742;2022-09-27T01:51:03;5.03;;;1.70;;
34019;SDS011;20895;51.034;3.742;2022-09-27T01:53:32;6.35;;;2.20;;
34019;SDS011;20895;51.034;3.742;2022-09-27T01:56:00;2.10;;;1.08;;
34019;SDS011;20895;51.034;3.742;2022-09-27T01:58:33;7.47;;;1.40;;
34019;SDS011;20895;51.034;3.742;2022-09-27T02:01:01;5.95;;;2.22;;
34019;SDS011;20895;51.034;3.742;2022-09-27T02:03:31;5.00;;;1.33;;
34019;SDS011;20895;51.034;3.742;2022-09-27T02:06:10;5.60;;;1.50;;
34019;SDS011;20895;51.034;3.742;2022-09-27T02:11:09;5.88;;;1.50;;
34019;SDS011;20895;51.034;3.742;2022-09-27T02:13:39;5.82;;;1.38;;
34019;SDS011;20895;51.034;3.742;2022-09-27T02:16:20;4.97;;;1.30;;
34019;SDS011;20895;51.034;3.742;2022-09-27T02:19:08;3.67;;;1.30;;
34019;SDS011;20895;51.034;3.742;2022-09-27T02:21:46;5.25;;;1.30;;
34019;SDS011;20895;51.034;3.742;2022-09-27T02:24:14;3.05;;;1.52;;
34019;SDS011;20895;51.034;3.742;2022-09-27T02:26:44;3.55;;;1.30;;
34019;SDS011;20895;51.034;3.742;2022-09-27T02:29:13;4.50;;;1.40;;
34019;SDS011;20895;51.034;3.742;2022-09-27T02:31:40;5.07;;;1.40;;
34019;SDS011;20895;51.034;3.742;2022-09-27T02:34:07;3.92;;;1.05;;
34019;SDS011;20895;51.034;3.742;2022-09-27T02:36:34;5.10;;;1.52;;
34019;SDS011;20895;51.034;3.742;2022-09-27T02:39:00;6.00;;;1.30;;
34019;SDS011;20895;51.034;3.742;2022-09-27T02:41:25;5.90;;;1.20;;
34019;SDS011;20895;51.034;3.742;2022-09-27T02:43:56;5.07;;;1.55;;
34019;SDS011;20895;51.034;3.742;2022-09-27T02:46:39;6.95;;;2.13;;
34019;SDS011;20895;51.034;3.742;2022-09-27T02:57:02;8.88;;;2.45;;
34019;SDS011;20895;51.034;3.742;2022-09-27T03:04:33;6.30;;;1.20;;
34019;SDS011;20895;51.034;3.742;2022-09-27T03:06:59;7.30;;;1.55;;
34019;SDS011;20895;51.034;3.742;2022-09-27T03:09:27;5.28;;;1.80;;
34019;SDS011;20895;51.034;3.742;2022-09-27T03:11:53;3.20;;;1.05;;
34019;SDS011;20895;51.034;3.742;2022-09-27T03:14:18;7.65;;;1.23;;
34019;SDS011;20895;51.034;3.742;2022-09-27T03:16:44;6.28;;;1.40;;
34019;SDS011;20895;51.034;3.742;2022-09-27T03:19:09;9.65;;;1.42;;
34019;SDS011;20895;51.034;3.742;2022-09-27T03:21:34;7.97;;;1.65;;
34019;SDS011;20895;51.034;3.742;2022-09-27T03:24:00;6.28;;;1.55;;
34019;SDS011;20895;51.034;3.742;2022-09-27T03:26:25;6.57;;;1.58;;
34019;SDS011;20895;51.034;3.742;2022-09-27T03:28:51;4.63;;;2.38;;
34019;SDS011;20895;51.034;3.742;2022-09-27T03:31:16;7.72;;;2.08;;
34019;SDS011;20895;51.034;3.742;2022-09-27T03:33:42;7.75;;;1.67;;
34019;SDS011;20895;51.034;3.742;2022-09-27T03:36:07;3.95;;;1.50;;
34019;SDS011;20895;51.034;3.742;2022-09-27T03:38:32;10.57;;;1.83;;
34019;SDS011;20895;51.034;3.742;2022-09-27T03:40:57;9.80;;;1.60;;
34019;SDS011;20895;51.034;3.742;2022-09-27T03:43:23;10.50;;;2.05;;
34019;SDS011;20895;51.034;3.742;2022-09-27T03:45:48;5.68;;;2.17;;
34019;SDS011;20895;51.034;3.742;2022-09-27T03:48:14;6.55;;;2.75;;
34019;SDS011;20895;51.034;3.742;2022-09-27T03:50:39;6.43;;;2.97;;
34019;SDS011;20895;51.034;3.742;2022-09-27T03:53:04;8.90;;;3.08;;
34019;SDS011;20895;51.034;3.742;2022-09-27T03:55:30;9.60;;;5.00;;
34019;SDS011;20895;51.034;3.742;2022-09-27T03:57:56;7.10;;;2.95;;
34019;SDS011;20895;51.034;3.742;2022-09-27T04:00:21;10.23;;;3.35;;
34019;SDS011;20895;51.034;3.742;2022-09-27T04:02:47;10.60;;;3.15;;
34019;SDS011;20895;51.034;3.742;2022-09-27T04:05:12;9.27;;;3.53;;
34019;SDS011;20895;51.034;3.742;2022-09-27T04:07:37;4.53;;;2.85;;
34019;SDS011;20895;51.034;3.742;2022-09-27T04:10:03;5.10;;;3.08;;
34019;SDS011;20895;51.034;3.742;2022-09-27T04:12:28;8.68;;;2.78;;
34019;SDS011;20895;51.034;3.742;2022-09-27T04:14:54;6.25;;;3.20;;
34019;SDS011;20895;51.034;3.742;2022-09-27T04:17:19;6.10;;;2.67;;
34019;SDS011;20895;51.034;3.742;2022-09-27T04:19:44;6.22;;;3.72;;
34019;SDS011;20895;51.034;3.742;2022-09-27T04:22:10;5.18;;;3.35;;
34019;SDS011;20895;51.034;3.742;2022-09-27T04:24:35;3.47;;;2.13;;
34019;SDS011;20895;51.034;3.742;2022-09-27T04:27:00;5.70;;;2.30;;
34019;SDS011;20895;51.034;3.742;2022-09-27T04:29:26;6.00;;;2.53;;
34019;SDS011;20895;51.034;3.742;2022-09-27T04:31:52;2.78;;;1.95;;
34019;SDS011;20895;51.034;3.742;2022-09-27T04:34:17;3.58;;;2.05;;
34019;SDS011;20895;51.034;3.742;2022-09-27T04:37:02;3.72;;;1.88;;
34019;SDS011;20895;51.034;3.742;2022-09-27T04:39:28;2.72;;;1.63;;
34019;SDS011;20895;51.034;3.742;2022-09-27T04:41:53;4.22;;;2.45;;
34019;SDS011;20895;51.034;3.742;2022-09-27T04:44:18;5.18;;;2.17;;
34019;SDS011;20895;51.034;3.742;2022-09-27T04:46:45;3.22;;;1.75;;
34019;SDS011;20895;51.034;3.742;2022-09-27T04:49:10;3.10;;;2.15;;
34019;SDS011;20895;51.034;3.742;2022-09-27T04:51:36;4.32;;;2.47;;
34019;SDS011;20895;51.034;3.742;2022-09-27T04:54:01;5.53;;;2.60;;
34019;SDS011;20895;51.034;3.742;2022-09-27T04:56:26;10.20;;;2.22;;
34019;SDS011;20895;51.034;3.742;2022-09-27T04:58:51;4.47;;;2.30;;
34019;SDS011;20895;51.034;3.742;2022-09-27T05:01:17;2.75;;;2.15;;
34019;SDS011;20895;51.034;3.742;2022-09-27T05:03:43;3.80;;;2.40;;
34019;SDS011;20895;51.034;3.742;2022-09-27T05:06:09;5.60;;;2.55;;
34019;SDS011;20895;51.034;3.742;2022-09-27T05:08:34;5.25;;;2.60;;
34019;SDS011;20895;51.034;3.742;2022-09-27T05:10:59;6.50;;;2.65;;
34019;SDS011;20895;51.034;3.742;2022-09-27T05:13:25;3.53;;;2.38;;
34019;SDS011;20895;51.034;3.742;2022-09-27T05:15:50;6.28;;;3.00;;
34019;SDS011;20895;51.034;3.742;2022-09-27T05:18:16;4.47;;;2.70;;
34019;SDS011;20895;51.034;3.742;2022-09-27T05:20:43;8.77;;;2.55;;
34019;SDS011;20895;51.034;3.742;2022-09-27T05:23:09;9.07;;;2.85;;
34019;SDS011;20895;51.034;3.742;2022-09-27T05:25:34;4.32;;;2.45;;
34019;SDS011;20895;51.034;3.742;2022-09-27T05:28:00;9.15;;;2.80;;
34019;SDS011;20895;51.034;3.742;2022-09-27T05:30:25;6.82;;;3.58;;
34019;SDS011;20895;51.034;3.742;2022-09-27T05:32:51;6.30;;;2.97;;
34019;SDS011;20895;51.034;3.742;2022-09-27T05:35:18;6.28;;;3.05;;
34019;SDS011;20895;51.034;3.742;2022-09-27T05:37:49;5.97;;;2.83;;
34019;SDS011;20895;51.034;3.742;2022-09-27T05:40:15;7.05;;;2.88;;
34019;SDS011;20895;51.034;3.742;2022-09-27T05:42:40;12.68;;;4.43;;
34019;SDS011;20895;51.034;3.742;2022-09-27T05:45:05;5.25;;;2.80;;
34019;SDS011;20895;51.034;3.742;2022-09-27T05:47:31;5.35;;;2.95;;
34019;SDS011;20895;51.034;3.742;2022-09-27T05:49:56;4.25;;;3.30;;
34019;SDS011;20895;51.034;3.742;2022-09-27T05:52:21;8.15;;;3.72;;
34019;SDS011;20895;51.034;3.742;2022-09-27T05:54:46;9.85;;;4.07;;
34019;SDS011;20895;51.034;3.742;2022-09-27T05:57:12;7.32;;;4.28;;
34019;SDS011;20895;51.034;3.742;2022-09-27T05:59:37;7.53;;;4.28;;
34019;SDS011;20895;51.034;3.742;2022-09-27T06:02:02;9.27;;;4.28;;
34019;SDS011;20895;51.034;3.742;2022-09-27T06:04:28;9.57;;;4.15;;
34019;SDS011;20895;51.034;3.742;2022-09-27T06:06:53;8.27;;;3.92;;
34019;SDS011;20895;51.034;3.742;2022-09-27T06:09:18;6.18;;;4.25;;
34019;SDS011;20895;51.034;3.742;2022-09-27T06:11:43;10.70;;;4.50;;
34019;SDS011;20895;51.034;3.742;2022-09-27T06:14:10;9.73;;;5.30;;
34019;SDS011;20895;51.034;3.742;2022-09-27T06:16:35;7.40;;;4.55;;
34019;SDS011;20895;51.034;3.742;2022-09-27T06:19:01;6.07;;;4.25;;
34019;SDS011;20895;51.034;3.742;2022-09-27T06:21:27;10.43;;;4.88;;
34019;SDS011;20895;51.034;3.742;2022-09-27T06:23:52;6.68;;;3.80;;
34019;SDS011;20895;51.034;3.742;2022-09-27T06:26:19;6.68;;;4.00;;
34019;SDS011;20895;51.034;3.742;2022-09-27T06:28:46;8.40;;;4.38;;
34019;SDS011;20895;51.034;3.742;2022-09-27T06:31:11;8.20;;;4.57;;
34019;SDS011;20895;51.034;3.742;2022-09-27T06:33:36;12.77;;;4.88;;
34019;SDS011;20895;51.034;3.742;2022-09-27T06:36:02;10.20;;;5.03;;
34019;SDS011;20895;51.034;3.742;2022-09-27T06:38:29;9.88;;;4.90;;
34019;SDS011;20895;51.034;3.742;2022-09-27T06:40:54;9.80;;;5.45;;
34019;SDS011;20895;51.034;3.742;2022-09-27T06:43:22;11.82;;;6.10;;
34019;SDS011;20895;51.034;3.742;2022-09-27T06:45:47;10.07;;;5.93;;
34019;SDS011;20895;51.034;3.742;2022-09-27T06:48:13;11.02;;;5.57;;
34019;SDS011;20895;51.034;3.742;2022-09-27T06:50:40;10.63;;;6.13;;
34019;SDS011;20895;51.034;3.742;2022-09-27T06:53:08;8.18;;;5.82;;
34019;SDS011;20895;51.034;3.742;2022-09-27T06:55:34;10.07;;;5.47;;
34019;SDS011;20895;51.034;3.742;2022-09-27T06:58:00;8.30;;;5.72;;
34019;SDS011;20895;51.034;3.742;2022-09-27T07:00:44;10.15;;;5.72;;
34019;SDS011;20895;51.034;3.742;2022-09-27T07:03:12;14.75;;;6.68;;
34019;SDS011;20895;51.034;3.742;2022-09-27T07:05:38;6.07;;;4.15;;
34019;SDS011;20895;51.034;3.742;2022-09-27T07:08:04;5.93;;;5.18;;
34019;SDS011;20895;51.034;3.742;2022-09-27T07:10:32;5.80;;;4.15;;
34019;SDS011;20895;51.034;3.742;2022-09-27T07:13:02;7.13;;;3.85;;
34019;SDS011;20895;51.034;3.742;2022-09-27T07:15:28;8.77;;;3.72;;
34019;SDS011;20895;51.034;3.742;2022-09-27T07:17:57;5.85;;;3.38;;
34019;SDS011;20895;51.034;3.742;2022-09-27T07:20:23;6.82;;;3.75;;
34019;SDS011;20895;51.034;3.742;2022-09-27T07:22:48;6.75;;;3.10;;
34019;SDS011;20895;51.034;3.742;2022-09-27T07:25:14;6.97;;;2.70;;
34019;SDS011;20895;51.034;3.742;2022-09-27T07:27:39;5.68;;;2.65;;
34019;SDS011;20895;51.034;3.742;2022-09-27T07:30:06;6.70;;;3.22;;
34019;SDS011;20895;51.034;3.742;2022-09-27T07:32:32;5.63;;;2.70;;
34019;SDS011;20895;51.034;3.742;2022-09-27T07:34:57;5.07;;;3.78;;
34019;SDS011;20895;51.034;3.742;2022-09-27T07:37:22;4.60;;;2.50;;
34019;SDS011;20895;51.034;3.742;2022-09-27T07:39:47;10.13;;;2.63;;
34019;SDS011;20895;51.034;3.742;2022-09-27T07:42:12;7.68;;;3.17;;
34019;SDS011;20895;51.034;3.742;2022-09-27T07:44:38;7.60;;;2.55;;
34019;SDS011;20895;51.034;3.742;2022-09-27T07:47:05;6.47;;;3.22;;
34019;SDS011;20895;51.034;3.742;2022-09-27T07:49:31;5.65;;;2.85;;
34019;SDS011;20895;51.034;3.742;2022-09-27T07:51:56;7.57;;;3.13;;
34019;SDS011;20895;51.034;3.742;2022-09-27T07:54:22;4.68;;;2.67;;
34019;SDS011;20895;51.034;3.742;2022-09-27T07:56:47;4.85;;;2.97;;
34019;SDS011;20895;51.034;3.742;2022-09-27T07:59:12;4.05;;;2.70;;
34019;SDS011;20895;51.034;3.742;2022-09-27T08:01:38;5.28;;;2.35;;
34019;SDS011;20895;51.034;3.742;2022-09-27T08:04:03;6.28;;;2.38;;
34019;SDS011;20895;51.034;3.742;2022-09-27T08:06:29;6.75;;;2.00;;
34019;SDS011;20895;51.034;3.742;2022-09-27T08:08:54;5.50;;;3.35;;
34019;SDS011;20895;51.034;3.742;2022-09-27T08:11:20;3.50;;;2.25;;
34019;SDS011;20895;51.034;3.742;2022-09-27T08:13:46;3.53;;;2.20;;
34019;SDS011;20895;51.034;3.742;2022-09-27T08:16:13;5.78;;;2.00;;
34019;SDS011;20895;51.034;3.742;2022-09-27T08:18:39;3.08;;;1.60;;
34019;SDS011;20895;51.034;3.742;2022-09-27T08:21:04;7.45;;;4.63;;
34019;SDS011;20895;51.034;3.742;2022-09-27T08:23:29;11.20;;;2.03;;
34019;SDS011;20895;51.034;3.742;2022-09-27T08:25:55;9.77;;;4.15;;
34019;SDS011;20895;51.034;3.742;2022-09-27T08:28:23;4.70;;;1.95;;
34019;SDS011;20895;51.034;3.742;2022-09-27T08:30:48;4.43;;;2.10;;
34019;SDS011;20895;51.034;3.742;2022-09-27T08:33:15;6.80;;;1.50;;
34019;SDS011;20895;51.034;3.742;2022-09-27T08:35:40;4.53;;;2.08;;
34019;SDS011;20895;51.034;3.742;2022-09-27T08:38:05;5.93;;;1.65;;
34019;SDS011;20895;51.034;3.742;2022-09-27T08:48:17;10.13;;;3.92;;
34019;SDS011;20895;51.034;3.742;2022-09-27T08:50:45;7.20;;;2.35;;
34019;SDS011;20895;51.034;3.742;2022-09-27T08:53:16;5.80;;;2.65;;
34019;SDS011;20895;51.034;3.742;2022-09-27T08:55:44;6.95;;;2.42;;
34019;SDS011;20895;51.034;3.742;2022-09-27T08:58:31;8.30;;;3.35;;
34019;SDS011;20895;51.034;3.742;2022-09-27T09:01:01;6.32;;;2.78;;
34019;SDS011;20895;51.034;3.742;2022-09-27T09:03:30;7.32;;;2.58;;
34019;SDS011;20895;51.034;3.742;2022-09-27T09:10:54;4.38;;;2.25;;
34019;SDS011;20895;51.034;3.742;2022-09-27T09:23:38;7.85;;;3.63;;
34019;SDS011;20895;51.034;3.742;2022-09-27T09:33:28;8.95;;;2.63;;
34019;SDS011;20895;51.034;3.742;2022-09-27T09:35:58;9.32;;;1.65;;
34019;SDS011;20895;51.034;3.742;2022-09-27T09:38:36;9.20;;;2.40;;
34019;SDS011;20895;51.034;3.742;2022-09-27T09:41:07;4.70;;;1.20;;
34019;SDS011;20895;51.034;3.742;2022-09-27T09:43:38;8.05;;;1.52;;
34019;SDS011;20895;51.034;3.742;2022-09-27T09:46:09;6.50;;;2.17;;
34019;SDS011;20895;51.034;3.742;2022-09-27T09:51:16;3.60;;;1.45;;
34019;SDS011;20895;51.034;3.742;2022-09-27T09:54:04;4.28;;;1.58;;
34019;SDS011;20895;51.034;3.742;2022-09-27T09:56:35;3.22;;;0.85;;
34019;SDS011;20895;51.034;3.742;2022-09-27T09:59:11;10.07;;;1.88;;
34019;SDS011;20895;51.034;3.742;2022-09-27T10:04:06;4.97;;;1.17;;
34019;SDS011;20895;51.034;3.742;2022-09-27T10:06:31;6.05;;;1.20;;
34019;SDS011;20895;51.034;3.742;2022-09-27T10:08:56;4.13;;;0.63;;
34019;SDS011;20895;51.034;3.742;2022-09-27T10:11:28;4.32;;;1.05;;
34019;SDS011;20895;51.034;3.742;2022-09-27T10:13:55;1.87;;;0.53;;
34019;SDS011;20895;51.034;3.742;2022-09-27T10:16:21;4.05;;;1.52;;
34019;SDS011;20895;51.034;3.742;2022-09-27T10:18:47;2.83;;;0.68;;
34019;SDS011;20895;51.034;3.742;2022-09-27T10:21:35;4.03;;;1.10;;
34019;SDS011;20895;51.034;3.742;2022-09-27T10:24:03;2.92;;;0.65;;
34019;SDS011;20895;51.034;3.742;2022-09-27T10:26:29;3.60;;;1.05;;
34019;SDS011;20895;51.034;3.742;2022-09-27T10:28:55;4.53;;;1.02;;
34019;SDS011;20895;51.034;3.742;2022-09-27T10:31:21;3.47;;;0.90;;
34019;SDS011;20895;51.034;3.742;2022-09-27T10:33:51;2.75;;;1.00;;
34019;SDS011;20895;51.034;3.742;2022-09-27T10:36:25;4.18;;;0.85;;
34019;SDS011;20895;51.034;3.742;2022-09-27T10:38:55;4.78;;;1.65;;
34019;SDS011;20895;51.034;3.742;2022-09-27T10:41:22;5.53;;;1.08;;
34019;SDS011;20895;51.034;3.742;2022-09-27T10:43:47;1.45;;;0.90;;
34019;SDS011;20895;51.034;3.742;2022-09-27T10:48:44;2.22;;;0.80;;
34019;SDS011;20895;51.034;3.742;2022-09-27T10:53:44;7.32;;;1.50;;
34019;SDS011;20895;51.034;3.742;2022-09-27T10:56:18;8.02;;;2.10;;
34019;SDS011;20895;51.034;3.742;2022-09-27T10:58:45;3.03;;;1.00;;
34019;SDS011;20895;51.034;3.742;2022-09-27T11:01:10;3.90;;;1.83;;
34019;SDS011;20895;51.034;3.742;2022-09-27T11:03:45;3.45;;;0.93;;
34019;SDS011;20895;51.034;3.742;2022-09-27T11:08:49;5.18;;;1.23;;
34019;SDS011;20895;51.034;3.742;2022-09-27T11:13:41;6.63;;;1.92;;
34019;SDS011;20895;51.034;3.742;2022-09-27T11:29:48;1.27;;;0.65;;
34019;SDS011;20895;51.034;3.742;2022-09-27T11:37:26;5.47;;;1.40;;
34019;SDS011;20895;51.034;3.742;2022-09-27T11:42:53;5.68;;;1.42;;
34019;SDS011;20895;51.034;3.742;2022-09-27T11:45:28;5.22;;;1.40;;
34019;SDS011;20895;51.034;3.742;2022-09-27T11:48:16;5.32;;;1.00;;
34019;SDS011;20895;51.034;3.742;2022-09-27T11:50:48;3.47;;;1.00;;
34019;SDS011;20895;51.034;3.742;2022-09-27T11:53:19;3.30;;;2.20;;
34019;SDS011;20895;51.034;3.742;2022-09-27T11:55:52;5.28;;;2.13;;
34019;SDS011;20895;51.034;3.742;2022-09-27T12:00:50;6.53;;;1.73;;
34019;SDS011;20895;51.034;3.742;2022-09-27T12:06:08;3.13;;;0.93;;
34019;SDS011;20895;51.034;3.742;2022-09-27T12:14:02;6.22;;;1.13;;
34019;SDS011;20895;51.034;3.742;2022-09-27T12:16:26;8.50;;;1.42;;
34019;SDS011;20895;51.034;3.742;2022-09-27T12:18:52;7.72;;;1.23;;
34019;SDS011;20895;51.034;3.742;2022-09-27T12:21:18;5.57;;;1.08;;
34019;SDS011;20895;51.034;3.742;2022-09-27T12:23:45;5.35;;;1.30;;
34019;SDS011;20895;51.034;3.742;2022-09-27T12:34:14;5.57;;;1.05;;
34019;SDS011;20895;51.034;3.742;2022-09-27T12:36:42;4.78;;;2.03;;
34019;SDS011;20895;51.034;3.742;2022-09-27T12:39:16;6.50;;;1.45;;
34019;SDS011;20895;51.034;3.742;2022-09-27T12:41:43;4.27;;;1.07;;
34019;SDS011;20895;51.034;3.742;2022-09-27T12:44:10;4.00;;;1.23;;
34019;SDS011;20895;51.034;3.742;2022-09-27T12:57:12;6.60;;;1.70;;
34019;SDS011;20895;51.034;3.742;2022-09-27T13:04:57;2.95;;;0.68;;
34019;SDS011;20895;51.034;3.742;2022-09-27T13:12:55;4.15;;;0.60;;
34019;SDS011;20895;51.034;3.742;2022-09-27T13:15:25;1.42;;;0.47;;
34019;SDS011;20895;51.034;3.742;2022-09-27T13:17:53;4.28;;;0.73;;
34019;SDS011;20895;51.034;3.742;2022-09-27T13:20:31;6.78;;;0.70;;
34019;SDS011;20895;51.034;3.742;2022-09-27T13:22:57;2.72;;;0.63;;
34019;SDS011;20895;51.034;3.742;2022-09-27T13:30:52;3.63;;;1.10;;
34019;SDS011;20895;51.034;3.742;2022-09-27T13:36:04;2.50;;;0.70;;
34019;SDS011;20895;51.034;3.742;2022-09-27T13:38:31;6.28;;;0.90;;
34019;SDS011;20895;51.034;3.742;2022-09-27T13:41:18;2.60;;;0.80;;
34019;SDS011;20895;51.034;3.742;2022-09-27T13:46:48;2.38;;;0.73;;
34019;SDS011;20895;51.034;3.742;2022-09-27T13:51:45;4.75;;;1.20;;
34019;SDS011;20895;51.034;3.742;2022-09-27T13:54:59;3.80;;;1.20;;
34019;SDS011;20895;51.034;3.742;2022-09-27T13:56:59;7.35;;;1.30;;
34019;SDS011;20895;51.034;3.742;2022-09-27T14:01:50;2.90;;;0.88;;
34019;SDS011;20895;51.034;3.742;2022-09-27T14:04:17;3.42;;;0.98;;
34019;SDS011;20895;51.034;3.742;2022-09-27T14:06:44;3.33;;;1.00;;
34019;SDS011;20895;51.034;3.742;2022-09-27T14:09:33;5.25;;;1.38;;
34019;SDS011;20895;51.034;3.742;2022-09-27T14:11:58;4.72;;;1.52;;
34019;SDS011;20895;51.034;3.742;2022-09-27T14:14:25;2.85;;;0.90;;
34019;SDS011;20895;51.034;3.742;2022-09-27T14:16:51;6.38;;;1.40;;
34019;SDS011;20895;51.034;3.742;2022-09-27T14:19:19;12.65;;;1.90;;
34019;SDS011;20895;51.034;3.742;2022-09-27T14:21:46;6.68;;;1.65;;
34019;SDS011;20895;51.034;3.742;2022-09-27T14:27:12;8.18;;;2.10;;
34019;SDS011;20895;51.034;3.742;2022-09-27T14:29:57;3.53;;;1.40;;
34019;SDS011;20895;51.034;3.742;2022-09-27T14:32:31;6.25;;;1.98;;
34019;SDS011;20895;51.034;3.742;2022-09-27T14:37:54;4.97;;;1.83;;
34019;SDS011;20895;51.034;3.742;2022-09-27T14:40:21;5.90;;;1.40;;
34019;SDS011;20895;51.034;3.742;2022-09-27T14:42:46;4.75;;;1.55;;
34019;SDS011;20895;51.034;3.742;2022-09-27T14:45:29;2.00;;;1.08;;
34019;SDS011;20895;51.034;3.742;2022-09-27T14:47:56;5.57;;;1.10;;
34019;SDS011;20895;51.034;3.742;2022-09-27T14:50:32;3.25;;;1.27;;
34019;SDS011;20895;51.034;3.742;2022-09-27T14:52:59;5.88;;;1.38;;
34019;SDS011;20895;51.034;3.742;2022-09-27T14:55:29;3.55;;;1.17;;
34019;SDS011;20895;51.034;3.742;2022-09-27T14:57:58;5.68;;;1.50;;
34019;SDS011;20895;51.034;3.742;2022-09-27T15:00:28;6.55;;;1.38;;
34019;SDS011;20895;51.034;3.742;2022-09-27T15:03:01;5.47;;;1.52;;
34019;SDS011;20895;51.034;3.742;2022-09-27T15:05:29;4.50;;;2.00;;
34019;SDS011;20895;51.034;3.742;2022-09-27T15:07:56;5.78;;;1.20;;
34019;SDS011;20895;51.034;3.742;2022-09-27T15:10:26;5.72;;;1.77;;
34019;SDS011;20895;51.034;3.742;2022-09-27T15:12:52;4.70;;;1.40;;
34019;SDS011;20895;51.034;3.742;2022-09-27T15:15:29;7.45;;;2.38;;
34019;SDS011;20895;51.034;3.742;2022-09-27T15:17:55;5.22;;;1.38;;
34019;SDS011;20895;51.034;3.742;2022-09-27T15:22:46;7.15;;;2.17;;
34019;SDS011;20895;51.034;3.742;2022-09-27T15:27:45;14.20;;;3.08;;
34019;SDS011;20895;51.034;3.742;2022-09-27T15:30:23;8.15;;;1.73;;
34019;SDS011;20895;51.034;3.742;2022-09-27T15:32:50;7.55;;;1.92;;
34019;SDS011;20895;51.034;3.742;2022-09-27T15:35:19;5.95;;;1.80;;
34019;SDS011;20895;51.034;3.742;2022-09-27T15:37:46;9.68;;;2.17;;
34019;SDS011;20895;51.034;3.742;2022-09-27T15:42:56;4.45;;;1.58;;
34019;SDS011;20895;51.034;3.742;2022-09-27T15:45:32;6.43;;;1.90;;
34019;SDS011;20895;51.034;3.742;2022-09-27T15:48:11;5.85;;;2.92;;
34019;SDS011;20895;51.034;3.742;2022-09-27T15:50:37;8.60;;;3.05;;
34019;SDS011;20895;51.034;3.742;2022-09-27T15:53:03;6.22;;;1.95;;
34019;SDS011;20895;51.034;3.742;2022-09-27T15:55:30;5.97;;;2.53;;
34019;SDS011;20895;51.034;3.742;2022-09-27T16:00:26;9.98;;;3.10;;
34019;SDS011;20895;51.034;3.742;2022-09-27T16:02:51;7.40;;;2.80;;
34019;SDS011;20895;51.034;3.742;2022-09-27T16:05:17;6.88;;;2.08;;
34019;SDS011;20895;51.034;3.742;2022-09-27T16:07:43;11.82;;;3.17;;
34019;SDS011;20895;51.034;3.742;2022-09-27T16:10:12;5.75;;;2.38;;
34019;SDS011;20895;51.034;3.742;2022-09-27T16:12:38;7.68;;;2.25;;
34019;SDS011;20895;51.034;3.742;2022-09-27T16:15:04;5.93;;;2.67;;
34019;SDS011;20895;51.034;3.742;2022-09-27T16:17:29;6.38;;;2.92;;
34019;SDS011;20895;51.034;3.742;2022-09-27T16:19:55;9.38;;;3.08;;
34019;SDS011;20895;51.034;3.742;2022-09-27T16:22:21;11.02;;;2.05;;
34019;SDS011;20895;51.034;3.742;2022-09-27T16:24:46;9.20;;;2.90;;
34019;SDS011;20895;51.034;3.742;2022-09-27T16:27:21;7.40;;;2.55;;
34019;SDS011;20895;51.034;3.742;2022-09-27T16:29:46;10.88;;;2.65;;
34019;SDS011;20895;51.034;3.742;2022-09-27T16:32:11;9.95;;;2.13;;
34019;SDS011;20895;51.034;3.742;2022-09-27T16:34:37;8.00;;;3.50;;
34019;SDS011;20895;51.034;3.742;2022-09-27T16:37:03;9.38;;;3.67;;
34019;SDS011;20895;51.034;3.742;2022-09-27T16:39:28;9.43;;;2.65;;
34019;SDS011;20895;51.034;3.742;2022-09-27T16:41:53;6.82;;;2.83;;
34019;SDS011;20895;51.034;3.742;2022-09-27T16:44:19;9.57;;;3.30;;
34019;SDS011;20895;51.034;3.742;2022-09-27T16:46:44;13.30;;;4.97;;
34019;SDS011;20895;51.034;3.742;2022-09-27T16:49:10;8.82;;;2.78;;
34019;SDS011;20895;51.034;3.742;2022-09-27T16:51:55;6.25;;;2.20;;
34019;SDS011;20895;51.034;3.742;2022-09-27T16:54:23;9.43;;;3.40;;
34019;SDS011;20895;51.034;3.742;2022-09-27T16:56:49;8.20;;;2.15;;
34019;SDS011;20895;51.034;3.742;2022-09-27T16:59:15;12.10;;;3.40;;
34019;SDS011;20895;51.034;3.742;2022-09-27T17:01:40;7.53;;;2.00;;
34019;SDS011;20895;51.034;3.742;2022-09-27T17:04:05;7.57;;;1.52;;
34019;SDS011;20895;51.034;3.742;2022-09-27T17:06:31;5.22;;;1.70;;
34019;SDS011;20895;51.034;3.742;2022-09-27T17:08:56;9.27;;;1.85;;
34019;SDS011;20895;51.034;3.742;2022-09-27T17:11:22;6.75;;;1.90;;
34019;SDS011;20895;51.034;3.742;2022-09-27T17:13:47;5.35;;;1.67;;
34019;SDS011;20895;51.034;3.742;2022-09-27T17:16:13;5.18;;;1.90;;
34019;SDS011;20895;51.034;3.742;2022-09-27T17:18:39;5.85;;;1.73;;
34019;SDS011;20895;51.034;3.742;2022-09-27T17:21:05;6.07;;;1.65;;
34019;SDS011;20895;51.034;3.742;2022-09-27T17:23:31;2.38;;;1.25;;
34019;SDS011;20895;51.034;3.742;2022-09-27T17:26:03;5.10;;;1.40;;
34019;SDS011;20895;51.034;3.742;2022-09-27T17:28:28;3.90;;;1.30;;
34019;SDS011;20895;51.034;3.742;2022-09-27T17:31:00;2.25;;;1.17;;
34019;SDS011;20895;51.034;3.742;2022-09-27T17:33:25;3.55;;;1.70;;
34019;SDS011;20895;51.034;3.742;2022-09-27T17:35:57;2.97;;;0.98;;
34019;SDS011;20895;51.034;3.742;2022-09-27T17:40:57;4.18;;;1.50;;
34019;SDS011;20895;51.034;3.742;2022-09-27T17:43:23;6.38;;;2.05;;
34019;SDS011;20895;51.034;3.742;2022-09-27T17:45:48;3.92;;;1.70;;
34019;SDS011;20895;51.034;3.742;2022-09-27T17:48:13;4.28;;;2.30;;
34019;SDS011;20895;51.034;3.742;2022-09-27T17:50:57;2.45;;;1.45;;
34019;SDS011;20895;51.034;3.742;2022-09-27T17:53:23;4.13;;;1.58;;